S70OTHELLO MUNI
METARs for airports near S70, sorted by distance:
N 26 nm 1188' KMWH 290552Z 25011KT 10SM CLR 18/08 A3000
S 30 nm 394' KRLD 290635Z 24007KT 10SM CLR 19/09 A3004
S 31 nm 410' KPSC 290553Z 26011KT 10SM CLR 23/08 A3003
NW 35 nm 1276' KEPH 290553Z 00000KT 10SM CLR 18/06 A2999
SE 53 nm 1194' KALW 290553Z 19010KT 10SM CLR 18/08 A3007
S 58 nm 644' KHRI 290553Z 20003KT 10SM CLR 18/10 A3007
NW 58 nm 1248' KEAT 290555Z 34005KT 10SM CLR 16/07 A3000
W 61 nm 1763' KELN 290553Z 31011KT 10SM CLR 15/09 A3005
W 61 nm 1098' KYKM 290553Z 23006KT 10SM CLR 17/08 A3004
S 66 nm 1496' KPDT 290553Z 23010KT 10SM CLR 19/08 A3009
NE 76 nm 2462' KSKA 290558Z 25011KT 10SM CLR 14/05 A2997
NE 80 nm 2385' KGEG 290553Z 24013KT 10SM FEW110 18/04 A2999
E 81 nm 2566' KPUW 290553Z 25010KT 10SM CLR 17/06 A3007
E 88 nm 1442' KLWS 290556Z 30006G14KT 10SM CLR 22/04 A3000
NE 89 nm 1956' KSFF 290553Z 26008G15KT 10SM CLR 19/05 A2998
NE 97 nm 2210' KDEW 290553Z 21009KT 10SM CLR 19/04 A2995
TAFs for airports near S70, sorted by distance:
N 26 nm 1188' KMWH TAF KMWH 290520Z 2906/3006 27017G27KT P6SM FEW250
  FM290700 23010KT P6SM FEW250
  FM292000 23012G18KT P6SM FEW150 FEW250
  FM300500 33005KT P6SM FEW250
S 31 nm 410' KPSC TAF KPSC 290520Z 2906/3006 26010KT P6SM SCT200
SE 53 nm 1194' KALW TAF KALW 290520Z 2906/3006 19010KT P6SM SKC
  FM291500 22012G22KT P6SM SCT250
  FM300300 16006KT P6SM SCT200
NW 58 nm 1248' KEAT TAF KEAT 290520Z 2906/3006 29015G22KT P6SM BKN080
  FM290700 30012KT P6SM FEW080
  FM292000 28011G17KT P6SM FEW150 FEW250
  FM300500 30010KT P6SM FEW250
W 61 nm 1098' KYKM TAF KYKM 290520Z 2906/3006 27009KT P6SM SKC
  FM291500 30010KT P6SM SCT200
S 66 nm 1496' KPDT TAF KPDT 290520Z 2906/3006 24014KT P6SM SKC
  FM291600 26014G24KT P6SM SCT250
  FM300300 28012KT P6SM SCT200
NE 76 nm 2462' KSKA TAF KSKA 290300Z 2903/3009 22015G25KT 9999 FEW250 QNH2992INS
  BECMG 2905/2906 20012KT 9999 SKC QNH3006INS
  BECMG 2916/2917 23012G18KT 9999 FEW200 QNH3004INS
  BECMG 2921/2922 23012KT 9999 FEW120 FEW200 QNH3002INS TX23/2923Z TN12/2912Z
NE 80 nm 2385' KGEG TAF KGEG 290520Z 2906/3006 22015G24KT P6SM SCT250
  FM290900 21012KT P6SM SKC
  FM291400 21014G21KT P6SM FEW250
  FM292100 22012KT P6SM FEW060 SCT150
  FM300500 13005KT P6SM FEW150
E 81 nm 2566' KPUW TAF KPUW 290520Z 2906/3006 24010G17KT P6SM FEW250
  FM290700 23006KT P6SM FEW250
  FM291400 25012G18KT P6SM SCT250
  FM300500 VRB03KT P6SM FEW250
E 88 nm 1442' KLWS TAF KLWS 290520Z 2906/3006 31011KT P6SM FEW250
  FM290800 23007KT P6SM SKC
  FM291600 31008KT P6SM SKC
  FM291900 31012G19KT P6SM SCT070 SCT250
  FM300500 15003KT P6SM FEW250
NE 89 nm 1956' KSFF TAF KSFF 290520Z 2906/3006 23013G20KT P6SM SCT250
  FM290700 22011KT P6SM SKC
  FM291400 21012G17KT P6SM FEW250
  FM292100 23009KT P6SM SCT060 SCT150
  FM300500 VRB03KT P6SM FEW150

Shortcut to this page: http://wxbay.com.

Data may contain errors.